Elec, Russia
Current Conditions -  °F | °C
As of 11:30 AM on Friday 28 Nov 2014 (Local Time) from UUOO Reporting Station
Clear Clear  
Wind Chill: 19°   Ceiling: Unl
Heat Index: 28°   Visibility: 6mi
Dew Point: -2°   Wind: 11mph
Humidity: 27%   Direction: 110°ESE
Pressure: 30.48"   Gusts: NA
Location:  52.63°N, 38.52°E
Report Text: UUOO 280830Z 11005MPS CAVOK M02/M19 Q1032 NOSIG RMK 12090070
Loading
Personal Weather Stations






























Interactive Weather Map New forecast layout! Learn more

10-Day Weather Forecast

Advertisements
Track Severe Weather on mobile